< < Back
Terminal Aerodrome Forecast


Current Version              Previous Versions:   1  2  3  4  5  6  7  8  9  

Terminal Aerodrome Forecast

215
FTUS42 KFFC 291125
TAFMCN
TAF
KMCN 291125Z 2912/3012 00000KT P6SM FEW120 SCT250
      TEMPO 2912/2913 5SM BR
     FM291400 34006KT P6SM SCT050 PROB30 2921/2924 6SM -TSRA
      BKN040CB
     FM300000 08004KT P6SM SCT100 BKN250=

Latest METAR

574
SAUS80 KWBC 291300
MTRMCN
METAR KMCN 291253Z 30003KT 8SM CLR 26/23 A2999 RMK AO2 SLP151
T02560233


USA.gov is the U.S. government's official web portal to all federal, state and local government web resources and services.